sensor_id;sensor_type;location;lat;lon;timestamp;P1;durP1;ratioP1;P2;durP2;ratioP2
8066;SDS011;4076;48.076;9.118;2022-07-18T00:00:01;4.30;;;4.00;;
8066;SDS011;4076;48.076;9.118;2022-07-18T00:02:27;4.23;;;3.83;;
8066;SDS011;4076;48.076;9.118;2022-07-18T00:04:53;4.47;;;4.20;;
8066;SDS011;4076;48.076;9.118;2022-07-18T00:07:18;5.17;;;4.87;;
8066;SDS011;4076;48.076;9.118;2022-07-18T00:09:44;5.00;;;4.70;;
8066;SDS011;4076;48.076;9.118;2022-07-18T00:12:09;5.33;;;5.03;;
8066;SDS011;4076;48.076;9.118;2022-07-18T00:14:36;3.73;;;3.53;;
8066;SDS011;4076;48.076;9.118;2022-07-18T00:17:02;3.93;;;3.60;;
8066;SDS011;4076;48.076;9.118;2022-07-18T00:19:28;5.40;;;5.00;;
8066;SDS011;4076;48.076;9.118;2022-07-18T00:21:54;5.10;;;4.80;;
8066;SDS011;4076;48.076;9.118;2022-07-18T00:24:20;5.07;;;4.57;;
8066;SDS011;4076;48.076;9.118;2022-07-18T00:26:45;5.90;;;5.50;;
8066;SDS011;4076;48.076;9.118;2022-07-18T00:29:11;4.10;;;3.80;;
8066;SDS011;4076;48.076;9.118;2022-07-18T00:31:36;5.70;;;5.23;;
8066;SDS011;4076;48.076;9.118;2022-07-18T00:34:03;4.30;;;4.07;;
8066;SDS011;4076;48.076;9.118;2022-07-18T00:36:29;6.30;;;5.70;;
8066;SDS011;4076;48.076;9.118;2022-07-18T00:38:55;4.63;;;4.37;;
8066;SDS011;4076;48.076;9.118;2022-07-18T00:41:21;4.30;;;3.93;;
8066;SDS011;4076;48.076;9.118;2022-07-18T00:43:47;4.20;;;3.90;;
8066;SDS011;4076;48.076;9.118;2022-07-18T00:46:13;4.57;;;4.27;;
8066;SDS011;4076;48.076;9.118;2022-07-18T00:48:39;4.23;;;4.03;;
8066;SDS011;4076;48.076;9.118;2022-07-18T00:51:06;4.40;;;4.10;;
8066;SDS011;4076;48.076;9.118;2022-07-18T00:53:32;5.60;;;5.30;;
8066;SDS011;4076;48.076;9.118;2022-07-18T00:55:58;4.13;;;3.93;;
8066;SDS011;4076;48.076;9.118;2022-07-18T00:58:25;4.50;;;4.10;;
8066;SDS011;4076;48.076;9.118;2022-07-18T01:00:52;3.93;;;3.63;;
8066;SDS011;4076;48.076;9.118;2022-07-18T01:03:36;5.20;;;4.80;;
8066;SDS011;4076;48.076;9.118;2022-07-18T01:06:01;4.93;;;4.63;;
8066;SDS011;4076;48.076;9.118;2022-07-18T01:08:27;4.50;;;4.20;;
8066;SDS011;4076;48.076;9.118;2022-07-18T01:10:53;5.30;;;5.00;;
8066;SDS011;4076;48.076;9.118;2022-07-18T01:13:19;5.13;;;4.73;;
8066;SDS011;4076;48.076;9.118;2022-07-18T01:15:46;4.63;;;4.13;;
8066;SDS011;4076;48.076;9.118;2022-07-18T01:18:11;4.80;;;4.40;;
8066;SDS011;4076;48.076;9.118;2022-07-18T01:20:37;5.97;;;5.53;;
8066;SDS011;4076;48.076;9.118;2022-07-18T01:23:03;3.83;;;3.53;;
8066;SDS011;4076;48.076;9.118;2022-07-18T01:25:29;4.30;;;4.10;;
8066;SDS011;4076;48.076;9.118;2022-07-18T01:27:54;4.43;;;4.13;;
8066;SDS011;4076;48.076;9.118;2022-07-18T01:30:21;3.93;;;3.67;;
8066;SDS011;4076;48.076;9.118;2022-07-18T01:32:54;5.50;;;5.10;;
8066;SDS011;4076;48.076;9.118;2022-07-18T01:35:21;3.77;;;3.57;;
8066;SDS011;4076;48.076;9.118;2022-07-18T01:37:49;4.43;;;4.13;;
8066;SDS011;4076;48.076;9.118;2022-07-18T01:40:16;4.30;;;4.10;;
8066;SDS011;4076;48.076;9.118;2022-07-18T01:42:42;6.50;;;6.00;;
8066;SDS011;4076;48.076;9.118;2022-07-18T01:45:07;6.23;;;5.47;;
8066;SDS011;4076;48.076;9.118;2022-07-18T01:47:33;4.57;;;4.17;;
8066;SDS011;4076;48.076;9.118;2022-07-18T01:49:59;3.83;;;3.63;;
8066;SDS011;4076;48.076;9.118;2022-07-18T01:52:24;3.70;;;3.50;;
8066;SDS011;4076;48.076;9.118;2022-07-18T01:54:50;4.03;;;3.83;;
8066;SDS011;4076;48.076;9.118;2022-07-18T01:57:15;4.70;;;4.20;;
8066;SDS011;4076;48.076;9.118;2022-07-18T01:59:41;5.10;;;4.80;;
8066;SDS011;4076;48.076;9.118;2022-07-18T02:02:06;3.97;;;3.77;;
8066;SDS011;4076;48.076;9.118;2022-07-18T02:04:32;4.83;;;4.53;;
8066;SDS011;4076;48.076;9.118;2022-07-18T02:07:16;5.37;;;4.97;;
8066;SDS011;4076;48.076;9.118;2022-07-18T02:09:42;4.40;;;4.10;;
8066;SDS011;4076;48.076;9.118;2022-07-18T02:12:07;4.97;;;4.57;;
8066;SDS011;4076;48.076;9.118;2022-07-18T02:14:33;5.03;;;4.63;;
8066;SDS011;4076;48.076;9.118;2022-07-18T02:16:58;4.40;;;4.17;;
8066;SDS011;4076;48.076;9.118;2022-07-18T02:19:24;4.80;;;4.50;;
8066;SDS011;4076;48.076;9.118;2022-07-18T02:21:49;5.23;;;4.83;;
8066;SDS011;4076;48.076;9.118;2022-07-18T02:24:15;4.37;;;4.07;;
8066;SDS011;4076;48.076;9.118;2022-07-18T02:26:41;4.73;;;4.40;;
8066;SDS011;4076;48.076;9.118;2022-07-18T02:29:06;6.17;;;5.77;;
8066;SDS011;4076;48.076;9.118;2022-07-18T02:31:32;4.73;;;4.43;;
8066;SDS011;4076;48.076;9.118;2022-07-18T02:33:57;4.93;;;4.63;;
8066;SDS011;4076;48.076;9.118;2022-07-18T02:36:23;4.20;;;4.00;;
8066;SDS011;4076;48.076;9.118;2022-07-18T02:38:48;3.27;;;3.07;;
8066;SDS011;4076;48.076;9.118;2022-07-18T02:41:14;4.37;;;4.07;;
8066;SDS011;4076;48.076;9.118;2022-07-18T02:43:39;5.13;;;4.73;;
8066;SDS011;4076;48.076;9.118;2022-07-18T02:46:05;4.83;;;4.50;;
8066;SDS011;4076;48.076;9.118;2022-07-18T02:48:30;4.07;;;3.77;;
8066;SDS011;4076;48.076;9.118;2022-07-18T02:50:56;5.03;;;4.63;;
8066;SDS011;4076;48.076;9.118;2022-07-18T02:53:21;6.23;;;5.27;;
8066;SDS011;4076;48.076;9.118;2022-07-18T02:55:48;4.63;;;4.33;;
8066;SDS011;4076;48.076;9.118;2022-07-18T02:58:15;4.90;;;4.60;;
8066;SDS011;4076;48.076;9.118;2022-07-18T03:00:41;4.00;;;3.80;;
8066;SDS011;4076;48.076;9.118;2022-07-18T03:03:07;3.73;;;3.53;;
8066;SDS011;4076;48.076;9.118;2022-07-18T03:05:32;5.00;;;4.57;;
8066;SDS011;4076;48.076;9.118;2022-07-18T03:07:58;9.10;;;4.67;;
8066;SDS011;4076;48.076;9.118;2022-07-18T03:10:23;4.83;;;4.43;;
8066;SDS011;4076;48.076;9.118;2022-07-18T03:12:49;7.10;;;6.63;;
8066;SDS011;4076;48.076;9.118;2022-07-18T03:15:14;6.00;;;5.50;;
8066;SDS011;4076;48.076;9.118;2022-07-18T03:17:40;4.97;;;4.70;;
8066;SDS011;4076;48.076;9.118;2022-07-18T03:20:05;6.53;;;4.90;;
8066;SDS011;4076;48.076;9.118;2022-07-18T03:22:31;5.60;;;5.20;;
8066;SDS011;4076;48.076;9.118;2022-07-18T03:24:58;5.83;;;5.43;;
8066;SDS011;4076;48.076;9.118;2022-07-18T03:27:24;5.37;;;4.87;;
8066;SDS011;4076;48.076;9.118;2022-07-18T03:29:49;5.30;;;4.90;;
8066;SDS011;4076;48.076;9.118;2022-07-18T03:32:15;5.00;;;4.60;;
8066;SDS011;4076;48.076;9.118;2022-07-18T03:34:40;5.03;;;4.63;;
8066;SDS011;4076;48.076;9.118;2022-07-18T03:37:06;5.33;;;4.73;;
8066;SDS011;4076;48.076;9.118;2022-07-18T03:39:31;4.67;;;4.37;;
8066;SDS011;4076;48.076;9.118;2022-07-18T03:41:57;5.10;;;4.80;;
8066;SDS011;4076;48.076;9.118;2022-07-18T03:44:23;3.77;;;3.57;;
8066;SDS011;4076;48.076;9.118;2022-07-18T03:46:48;5.30;;;4.90;;
8066;SDS011;4076;48.076;9.118;2022-07-18T03:49:16;4.93;;;4.63;;
8066;SDS011;4076;48.076;9.118;2022-07-18T03:51:42;4.23;;;3.93;;
8066;SDS011;4076;48.076;9.118;2022-07-18T03:54:07;5.37;;;5.03;;
8066;SDS011;4076;48.076;9.118;2022-07-18T03:56:34;5.53;;;5.23;;
8066;SDS011;4076;48.076;9.118;2022-07-18T03:59:00;4.70;;;4.40;;
8066;SDS011;4076;48.076;9.118;2022-07-18T04:01:26;5.60;;;5.00;;
8066;SDS011;4076;48.076;9.118;2022-07-18T04:03:51;5.27;;;4.87;;
8066;SDS011;4076;48.076;9.118;2022-07-18T04:06:18;5.57;;;5.17;;
8066;SDS011;4076;48.076;9.118;2022-07-18T04:08:43;4.67;;;4.27;;
8066;SDS011;4076;48.076;9.118;2022-07-18T04:11:09;5.47;;;5.07;;
8066;SDS011;4076;48.076;9.118;2022-07-18T04:13:34;4.77;;;4.37;;
8066;SDS011;4076;48.076;9.118;2022-07-18T04:16:00;5.10;;;4.70;;
8066;SDS011;4076;48.076;9.118;2022-07-18T04:18:26;5.80;;;5.37;;
8066;SDS011;4076;48.076;9.118;2022-07-18T04:20:51;4.37;;;4.07;;
8066;SDS011;4076;48.076;9.118;2022-07-18T04:23:17;4.37;;;3.97;;
8066;SDS011;4076;48.076;9.118;2022-07-18T04:25:43;4.77;;;4.33;;
8066;SDS011;4076;48.076;9.118;2022-07-18T04:28:09;5.30;;;4.90;;
8066;SDS011;4076;48.076;9.118;2022-07-18T04:30:36;4.13;;;3.93;;
8066;SDS011;4076;48.076;9.118;2022-07-18T04:33:03;4.30;;;4.00;;
8066;SDS011;4076;48.076;9.118;2022-07-18T04:35:30;4.00;;;3.80;;
8066;SDS011;4076;48.076;9.118;2022-07-18T04:37:57;6.00;;;4.57;;
8066;SDS011;4076;48.076;9.118;2022-07-18T04:40:23;6.23;;;5.63;;
8066;SDS011;4076;48.076;9.118;2022-07-18T04:42:49;4.60;;;4.30;;
8066;SDS011;4076;48.076;9.118;2022-07-18T04:45:15;4.53;;;4.23;;
8066;SDS011;4076;48.076;9.118;2022-07-18T04:47:40;4.97;;;4.57;;
8066;SDS011;4076;48.076;9.118;2022-07-18T04:50:06;5.10;;;4.70;;
8066;SDS011;4076;48.076;9.118;2022-07-18T04:52:37;3.57;;;3.37;;
8066;SDS011;4076;48.076;9.118;2022-07-18T04:55:03;5.23;;;4.83;;
8066;SDS011;4076;48.076;9.118;2022-07-18T04:57:29;4.27;;;3.97;;
8066;SDS011;4076;48.076;9.118;2022-07-18T04:59:55;4.77;;;4.47;;
8066;SDS011;4076;48.076;9.118;2022-07-18T05:02:20;4.50;;;4.10;;
8066;SDS011;4076;48.076;9.118;2022-07-18T05:04:46;5.07;;;4.77;;
8066;SDS011;4076;48.076;9.118;2022-07-18T05:07:11;4.33;;;4.03;;
8066;SDS011;4076;48.076;9.118;2022-07-18T05:09:37;5.50;;;5.20;;
8066;SDS011;4076;48.076;9.118;2022-07-18T05:12:03;3.70;;;3.50;;
8066;SDS011;4076;48.076;9.118;2022-07-18T05:14:28;3.47;;;3.17;;
8066;SDS011;4076;48.076;9.118;2022-07-18T05:16:54;4.33;;;4.03;;
8066;SDS011;4076;48.076;9.118;2022-07-18T05:19:19;4.30;;;4.10;;
8066;SDS011;4076;48.076;9.118;2022-07-18T05:21:45;4.40;;;4.00;;
8066;SDS011;4076;48.076;9.118;2022-07-18T05:24:11;4.13;;;3.93;;
8066;SDS011;4076;48.076;9.118;2022-07-18T05:26:36;4.67;;;4.37;;
8066;SDS011;4076;48.076;9.118;2022-07-18T05:29:02;4.43;;;4.13;;
8066;SDS011;4076;48.076;9.118;2022-07-18T05:31:28;3.83;;;3.53;;
8066;SDS011;4076;48.076;9.118;2022-07-18T05:33:54;4.80;;;4.40;;
8066;SDS011;4076;48.076;9.118;2022-07-18T05:36:19;4.93;;;4.53;;
8066;SDS011;4076;48.076;9.118;2022-07-18T05:38:45;4.70;;;4.40;;
8066;SDS011;4076;48.076;9.118;2022-07-18T05:41:10;4.27;;;4.07;;
8066;SDS011;4076;48.076;9.118;2022-07-18T05:43:36;4.87;;;4.60;;
8066;SDS011;4076;48.076;9.118;2022-07-18T05:46:01;4.23;;;4.03;;
8066;SDS011;4076;48.076;9.118;2022-07-18T05:48:27;4.87;;;4.57;;
8066;SDS011;4076;48.076;9.118;2022-07-18T05:50:53;4.80;;;4.57;;
8066;SDS011;4076;48.076;9.118;2022-07-18T05:53:18;4.90;;;4.50;;
8066;SDS011;4076;48.076;9.118;2022-07-18T05:55:44;4.30;;;4.10;;
8066;SDS011;4076;48.076;9.118;2022-07-18T05:58:09;3.63;;;3.43;;
8066;SDS011;4076;48.076;9.118;2022-07-18T06:00:35;3.00;;;2.80;;
8066;SDS011;4076;48.076;9.118;2022-07-18T06:03:00;3.57;;;3.27;;
8066;SDS011;4076;48.076;9.118;2022-07-18T06:05:26;4.30;;;4.10;;
8066;SDS011;4076;48.076;9.118;2022-07-18T06:07:55;4.47;;;4.10;;
8066;SDS011;4076;48.076;9.118;2022-07-18T06:10:22;3.73;;;3.50;;
8066;SDS011;4076;48.076;9.118;2022-07-18T06:12:49;3.63;;;3.53;;
8066;SDS011;4076;48.076;9.118;2022-07-18T06:15:15;3.17;;;2.97;;
8066;SDS011;4076;48.076;9.118;2022-07-18T06:17:41;4.67;;;4.47;;
8066;SDS011;4076;48.076;9.118;2022-07-18T06:20:07;4.40;;;4.00;;
8066;SDS011;4076;48.076;9.118;2022-07-18T06:22:33;3.77;;;3.57;;
8066;SDS011;4076;48.076;9.118;2022-07-18T06:24:59;4.73;;;4.33;;
8066;SDS011;4076;48.076;9.118;2022-07-18T06:27:26;3.80;;;3.60;;
8066;SDS011;4076;48.076;9.118;2022-07-18T06:29:51;3.90;;;3.70;;
8066;SDS011;4076;48.076;9.118;2022-07-18T06:32:17;4.00;;;3.80;;
8066;SDS011;4076;48.076;9.118;2022-07-18T06:34:42;16.77;;;4.07;;
8066;SDS011;4076;48.076;9.118;2022-07-18T06:37:08;5.50;;;5.10;;
8066;SDS011;4076;48.076;9.118;2022-07-18T06:39:33;4.67;;;4.27;;
8066;SDS011;4076;48.076;9.118;2022-07-18T06:41:59;4.43;;;4.00;;
8066;SDS011;4076;48.076;9.118;2022-07-18T06:44:24;8.23;;;4.80;;
8066;SDS011;4076;48.076;9.118;2022-07-18T06:46:50;5.50;;;4.40;;
8066;SDS011;4076;48.076;9.118;2022-07-18T06:49:17;4.90;;;4.00;;
8066;SDS011;4076;48.076;9.118;2022-07-18T06:51:43;4.90;;;4.40;;
8066;SDS011;4076;48.076;9.118;2022-07-18T06:54:08;7.13;;;4.20;;
8066;SDS011;4076;48.076;9.118;2022-07-18T06:56:34;4.00;;;3.50;;
8066;SDS011;4076;48.076;9.118;2022-07-18T06:59:00;4.33;;;3.53;;
8066;SDS011;4076;48.076;9.118;2022-07-18T07:01:26;3.87;;;3.10;;
8066;SDS011;4076;48.076;9.118;2022-07-18T07:03:51;3.87;;;3.63;;
8066;SDS011;4076;48.076;9.118;2022-07-18T07:06:17;4.10;;;3.80;;
8066;SDS011;4076;48.076;9.118;2022-07-18T07:08:43;4.67;;;4.37;;
8066;SDS011;4076;48.076;9.118;2022-07-18T07:11:09;4.07;;;3.80;;
8066;SDS011;4076;48.076;9.118;2022-07-18T07:13:35;4.20;;;4.00;;
8066;SDS011;4076;48.076;9.118;2022-07-18T07:16:00;3.53;;;3.37;;
8066;SDS011;4076;48.076;9.118;2022-07-18T07:18:26;5.13;;;4.63;;
8066;SDS011;4076;48.076;9.118;2022-07-18T07:20:51;4.47;;;4.13;;
8066;SDS011;4076;48.076;9.118;2022-07-18T07:23:17;3.60;;;3.40;;
8066;SDS011;4076;48.076;9.118;2022-07-18T07:25:42;5.43;;;5.13;;
8066;SDS011;4076;48.076;9.118;2022-07-18T07:28:08;4.73;;;4.50;;
8066;SDS011;4076;48.076;9.118;2022-07-18T07:30:34;3.60;;;3.40;;
8066;SDS011;4076;48.076;9.118;2022-07-18T07:33:00;3.23;;;3.03;;
8066;SDS011;4076;48.076;9.118;2022-07-18T07:35:27;3.43;;;3.23;;
8066;SDS011;4076;48.076;9.118;2022-07-18T07:37:57;3.80;;;3.60;;
8066;SDS011;4076;48.076;9.118;2022-07-18T07:40:24;4.30;;;4.10;;
8066;SDS011;4076;48.076;9.118;2022-07-18T07:42:52;2.90;;;2.80;;
8066;SDS011;4076;48.076;9.118;2022-07-18T07:45:29;4.53;;;4.23;;
8066;SDS011;4076;48.076;9.118;2022-07-18T07:47:54;4.27;;;3.30;;
8066;SDS011;4076;48.076;9.118;2022-07-18T07:50:20;3.97;;;3.30;;
8066;SDS011;4076;48.076;9.118;2022-07-18T07:52:45;3.30;;;3.10;;
8066;SDS011;4076;48.076;9.118;2022-07-18T07:55:11;2.70;;;2.60;;
8066;SDS011;4076;48.076;9.118;2022-07-18T07:57:37;2.93;;;2.73;;
8066;SDS011;4076;48.076;9.118;2022-07-18T08:00:06;3.20;;;3.00;;
8066;SDS011;4076;48.076;9.118;2022-07-18T08:02:33;3.20;;;3.10;;
8066;SDS011;4076;48.076;9.118;2022-07-18T08:05:00;3.07;;;2.97;;
8066;SDS011;4076;48.076;9.118;2022-07-18T08:07:25;3.60;;;3.50;;
8066;SDS011;4076;48.076;9.118;2022-07-18T08:09:51;4.10;;;3.90;;
8066;SDS011;4076;48.076;9.118;2022-07-18T08:12:17;2.80;;;2.70;;
8066;SDS011;4076;48.076;9.118;2022-07-18T08:14:42;3.50;;;3.40;;
8066;SDS011;4076;48.076;9.118;2022-07-18T08:17:08;3.10;;;2.90;;
8066;SDS011;4076;48.076;9.118;2022-07-18T08:19:33;3.13;;;2.93;;
8066;SDS011;4076;48.076;9.118;2022-07-18T08:21:59;3.40;;;3.30;;
8066;SDS011;4076;48.076;9.118;2022-07-18T08:24:24;3.13;;;2.93;;
8066;SDS011;4076;48.076;9.118;2022-07-18T08:26:50;3.70;;;3.60;;
8066;SDS011;4076;48.076;9.118;2022-07-18T08:29:16;3.47;;;3.17;;
8066;SDS011;4076;48.076;9.118;2022-07-18T08:31:41;3.53;;;3.33;;
8066;SDS011;4076;48.076;9.118;2022-07-18T08:34:07;4.20;;;4.00;;
8066;SDS011;4076;48.076;9.118;2022-07-18T08:36:33;3.73;;;3.53;;
8066;SDS011;4076;48.076;9.118;2022-07-18T08:38:58;5.43;;;5.10;;
8066;SDS011;4076;48.076;9.118;2022-07-18T08:41:24;3.90;;;3.60;;
8066;SDS011;4076;48.076;9.118;2022-07-18T08:43:52;5.27;;;5.03;;
8066;SDS011;4076;48.076;9.118;2022-07-18T08:46:19;6.87;;;3.97;;
8066;SDS011;4076;48.076;9.118;2022-07-18T08:48:46;5.93;;;5.73;;
8066;SDS011;4076;48.076;9.118;2022-07-18T08:51:13;5.53;;;5.35;;
8066;SDS011;4076;48.076;9.118;2022-07-18T08:53:39;6.00;;;5.70;;
8066;SDS011;4076;48.076;9.118;2022-07-18T08:56:05;5.43;;;5.20;;
8066;SDS011;4076;48.076;9.118;2022-07-18T08:58:31;5.97;;;5.68;;
8066;SDS011;4076;48.076;9.118;2022-07-18T09:00:57;7.13;;;6.82;;
8066;SDS011;4076;48.076;9.118;2022-07-18T09:03:23;5.93;;;5.72;;
8066;SDS011;4076;48.076;9.118;2022-07-18T09:06:05;5.55;;;5.35;;
8066;SDS011;4076;48.076;9.118;2022-07-18T09:08:32;5.90;;;5.80;;
8066;SDS011;4076;48.076;9.118;2022-07-18T09:10:59;7.53;;;7.22;;
8066;SDS011;4076;48.076;9.118;2022-07-18T09:13:35;6.80;;;6.50;;
8066;SDS011;4076;48.076;9.118;2022-07-18T09:16:04;5.55;;;5.45;;
8066;SDS011;4076;48.076;9.118;2022-07-18T09:18:37;5.95;;;5.80;;
8066;SDS011;4076;48.076;9.118;2022-07-18T09:21:06;5.82;;;5.63;;
8066;SDS011;4076;48.076;9.118;2022-07-18T09:23:35;6.13;;;5.93;;
8066;SDS011;4076;48.076;9.118;2022-07-18T09:26:03;8.02;;;7.82;;
8066;SDS011;4076;48.076;9.118;2022-07-18T09:28:29;7.35;;;7.05;;
8066;SDS011;4076;48.076;9.118;2022-07-18T09:31:20;8.10;;;7.90;;
8066;SDS011;4076;48.076;9.118;2022-07-18T09:33:51;6.78;;;6.65;;
8066;SDS011;4076;48.076;9.118;2022-07-18T09:36:21;6.93;;;6.82;;
8066;SDS011;4076;48.076;9.118;2022-07-18T09:38:47;5.82;;;5.72;;
8066;SDS011;4076;48.076;9.118;2022-07-18T09:41:13;5.80;;;5.68;;
8066;SDS011;4076;48.076;9.118;2022-07-18T09:43:38;5.95;;;5.85;;
8066;SDS011;4076;48.076;9.118;2022-07-18T09:46:05;5.93;;;5.72;;
8066;SDS011;4076;48.076;9.118;2022-07-18T09:48:31;5.68;;;5.57;;
8066;SDS011;4076;48.076;9.118;2022-07-18T09:53:32;5.60;;;5.40;;
8066;SDS011;4076;48.076;9.118;2022-07-18T09:56:06;5.35;;;5.15;;
8066;SDS011;4076;48.076;9.118;2022-07-18T09:58:35;5.03;;;4.82;;
8066;SDS011;4076;48.076;9.118;2022-07-18T10:01:02;4.53;;;4.43;;
8066;SDS011;4076;48.076;9.118;2022-07-18T10:03:30;5.55;;;5.25;;
8066;SDS011;4076;48.076;9.118;2022-07-18T10:05:57;5.23;;;5.03;;
8066;SDS011;4076;48.076;9.118;2022-07-18T10:08:25;3.30;;;3.20;;
8066;SDS011;4076;48.076;9.118;2022-07-18T10:10:52;4.23;;;2.93;;
8066;SDS011;4076;48.076;9.118;2022-07-18T10:13:20;2.57;;;2.47;;
8066;SDS011;4076;48.076;9.118;2022-07-18T10:15:47;3.00;;;2.83;;
8066;SDS011;4076;48.076;9.118;2022-07-18T10:18:16;2.73;;;2.63;;
8066;SDS011;4076;48.076;9.118;2022-07-18T10:31:22;3.33;;;2.57;;
8066;SDS011;4076;48.076;9.118;2022-07-18T10:33:49;2.73;;;2.50;;
8066;SDS011;4076;48.076;9.118;2022-07-18T10:36:16;2.30;;;2.10;;
8066;SDS011;4076;48.076;9.118;2022-07-18T10:39:02;2.30;;;2.20;;
8066;SDS011;4076;48.076;9.118;2022-07-18T11:00:05;1.83;;;1.73;;
8066;SDS011;4076;48.076;9.118;2022-07-18T11:08:15;1.97;;;1.87;;
8066;SDS011;4076;48.076;9.118;2022-07-18T11:21:25;3.10;;;2.90;;
8066;SDS011;4076;48.076;9.118;2022-07-18T11:23:54;3.37;;;3.20;;
8066;SDS011;4076;48.076;9.118;2022-07-18T11:26:26;2.27;;;2.17;;
8066;SDS011;4076;48.076;9.118;2022-07-18T11:28:59;2.37;;;2.27;;
8066;SDS011;4076;48.076;9.118;2022-07-18T11:31:29;2.63;;;2.53;;
8066;SDS011;4076;48.076;9.118;2022-07-18T11:33:55;3.07;;;2.87;;
8066;SDS011;4076;48.076;9.118;2022-07-18T11:36:28;2.17;;;2.07;;
8066;SDS011;4076;48.076;9.118;2022-07-18T11:38:56;3.43;;;3.23;;
8066;SDS011;4076;48.076;9.118;2022-07-18T11:41:23;3.03;;;2.87;;
8066;SDS011;4076;48.076;9.118;2022-07-18T11:43:50;3.00;;;2.90;;
8066;SDS011;4076;48.076;9.118;2022-07-18T11:46:17;2.40;;;2.30;;
8066;SDS011;4076;48.076;9.118;2022-07-18T11:48:45;2.70;;;2.50;;
8066;SDS011;4076;48.076;9.118;2022-07-18T11:51:16;3.77;;;3.57;;
8066;SDS011;4076;48.076;9.118;2022-07-18T11:53:44;3.20;;;3.00;;
8066;SDS011;4076;48.076;9.118;2022-07-18T11:56:10;2.90;;;2.80;;
8066;SDS011;4076;48.076;9.118;2022-07-18T11:58:37;5.40;;;3.50;;
8066;SDS011;4076;48.076;9.118;2022-07-18T12:01:04;3.47;;;3.27;;
8066;SDS011;4076;48.076;9.118;2022-07-18T12:03:33;2.73;;;2.63;;
8066;SDS011;4076;48.076;9.118;2022-07-18T12:06:09;2.83;;;2.73;;
8066;SDS011;4076;48.076;9.118;2022-07-18T12:08:38;3.27;;;3.07;;
8066;SDS011;4076;48.076;9.118;2022-07-18T12:16:39;3.10;;;2.90;;
8066;SDS011;4076;48.076;9.118;2022-07-18T12:24:30;2.50;;;2.40;;
8066;SDS011;4076;48.076;9.118;2022-07-18T12:32:24;2.70;;;2.60;;
8066;SDS011;4076;48.076;9.118;2022-07-18T12:34:57;3.30;;;3.10;;
8066;SDS011;4076;48.076;9.118;2022-07-18T12:37:27;3.53;;;3.33;;
8066;SDS011;4076;48.076;9.118;2022-07-18T12:39:58;2.60;;;2.50;;
8066;SDS011;4076;48.076;9.118;2022-07-18T12:42:26;2.67;;;2.57;;
8066;SDS011;4076;48.076;9.118;2022-07-18T12:44:53;3.20;;;3.00;;
8066;SDS011;4076;48.076;9.118;2022-07-18T12:47:19;3.73;;;3.40;;
8066;SDS011;4076;48.076;9.118;2022-07-18T12:49:44;2.60;;;2.50;;
8066;SDS011;4076;48.076;9.118;2022-07-18T12:52:10;2.83;;;2.73;;
8066;SDS011;4076;48.076;9.118;2022-07-18T12:54:36;3.30;;;3.20;;
8066;SDS011;4076;48.076;9.118;2022-07-18T12:57:01;2.60;;;2.50;;
8066;SDS011;4076;48.076;9.118;2022-07-18T12:59:27;3.40;;;3.20;;
8066;SDS011;4076;48.076;9.118;2022-07-18T13:01:52;2.97;;;2.77;;
8066;SDS011;4076;48.076;9.118;2022-07-18T13:04:18;2.93;;;2.83;;
8066;SDS011;4076;48.076;9.118;2022-07-18T13:06:44;2.40;;;2.30;;
8066;SDS011;4076;48.076;9.118;2022-07-18T13:09:10;3.23;;;3.03;;
8066;SDS011;4076;48.076;9.118;2022-07-18T13:11:35;3.30;;;3.20;;
8066;SDS011;4076;48.076;9.118;2022-07-18T13:14:01;2.57;;;2.47;;
8066;SDS011;4076;48.076;9.118;2022-07-18T13:16:27;3.40;;;3.10;;
8066;SDS011;4076;48.076;9.118;2022-07-18T13:18:52;3.33;;;2.93;;
8066;SDS011;4076;48.076;9.118;2022-07-18T13:21:18;4.13;;;3.93;;
8066;SDS011;4076;48.076;9.118;2022-07-18T13:23:43;3.43;;;3.33;;
8066;SDS011;4076;48.076;9.118;2022-07-18T13:26:09;3.00;;;2.80;;
8066;SDS011;4076;48.076;9.118;2022-07-18T13:28:34;2.60;;;2.40;;
8066;SDS011;4076;48.076;9.118;2022-07-18T13:31:00;2.83;;;2.73;;
8066;SDS011;4076;48.076;9.118;2022-07-18T13:33:26;3.20;;;3.10;;
8066;SDS011;4076;48.076;9.118;2022-07-18T13:35:52;3.17;;;2.70;;
8066;SDS011;4076;48.076;9.118;2022-07-18T13:38:17;3.77;;;3.53;;
8066;SDS011;4076;48.076;9.118;2022-07-18T13:40:43;3.97;;;3.17;;
8066;SDS011;4076;48.076;9.118;2022-07-18T13:43:08;4.40;;;3.47;;
8066;SDS011;4076;48.076;9.118;2022-07-18T13:45:36;3.70;;;3.40;;
8066;SDS011;4076;48.076;9.118;2022-07-18T13:48:03;3.47;;;3.20;;
8066;SDS011;4076;48.076;9.118;2022-07-18T13:50:29;3.30;;;3.10;;
8066;SDS011;4076;48.076;9.118;2022-07-18T13:52:55;3.47;;;3.20;;
8066;SDS011;4076;48.076;9.118;2022-07-18T13:55:21;2.80;;;2.70;;
8066;SDS011;4076;48.076;9.118;2022-07-18T13:57:47;3.30;;;3.10;;
8066;SDS011;4076;48.076;9.118;2022-07-18T14:00:13;3.33;;;3.17;;
8066;SDS011;4076;48.076;9.118;2022-07-18T14:02:39;2.70;;;2.60;;
8066;SDS011;4076;48.076;9.118;2022-07-18T14:05:04;7.83;;;3.07;;
8066;SDS011;4076;48.076;9.118;2022-07-18T14:07:30;2.40;;;2.30;;
8066;SDS011;4076;48.076;9.118;2022-07-18T14:09:56;3.23;;;3.13;;
8066;SDS011;4076;48.076;9.118;2022-07-18T14:12:21;2.93;;;2.73;;
8066;SDS011;4076;48.076;9.118;2022-07-18T14:14:47;3.27;;;3.07;;
8066;SDS011;4076;48.076;9.118;2022-07-18T14:17:13;3.07;;;2.97;;
8066;SDS011;4076;48.076;9.118;2022-07-18T14:19:38;3.67;;;3.47;;
8066;SDS011;4076;48.076;9.118;2022-07-18T14:22:04;3.57;;;3.37;;
8066;SDS011;4076;48.076;9.118;2022-07-18T14:24:29;3.23;;;3.03;;
8066;SDS011;4076;48.076;9.118;2022-07-18T14:26:55;3.20;;;3.00;;
8066;SDS011;4076;48.076;9.118;2022-07-18T14:29:20;2.87;;;2.77;;
8066;SDS011;4076;48.076;9.118;2022-07-18T14:31:46;4.10;;;3.00;;
8066;SDS011;4076;48.076;9.118;2022-07-18T14:34:11;3.23;;;3.03;;
8066;SDS011;4076;48.076;9.118;2022-07-18T14:36:37;3.47;;;3.27;;
8066;SDS011;4076;48.076;9.118;2022-07-18T14:39:02;2.77;;;2.67;;
8066;SDS011;4076;48.076;9.118;2022-07-18T14:41:28;3.73;;;3.53;;
8066;SDS011;4076;48.076;9.118;2022-07-18T14:43:53;2.73;;;2.63;;
8066;SDS011;4076;48.076;9.118;2022-07-18T14:46:19;3.00;;;2.90;;
8066;SDS011;4076;48.076;9.118;2022-07-18T14:48:44;3.57;;;3.27;;
8066;SDS011;4076;48.076;9.118;2022-07-18T14:51:10;3.80;;;3.50;;
8066;SDS011;4076;48.076;9.118;2022-07-18T14:53:35;3.13;;;3.03;;
8066;SDS011;4076;48.076;9.118;2022-07-18T14:56:01;3.00;;;2.80;;
8066;SDS011;4076;48.076;9.118;2022-07-18T14:58:27;2.63;;;2.53;;
8066;SDS011;4076;48.076;9.118;2022-07-18T15:00:52;3.03;;;2.87;;
8066;SDS011;4076;48.076;9.118;2022-07-18T15:03:18;4.43;;;4.13;;
8066;SDS011;4076;48.076;9.118;2022-07-18T15:05:43;3.77;;;3.47;;
8066;SDS011;4076;48.076;9.118;2022-07-18T15:08:09;3.00;;;2.90;;
8066;SDS011;4076;48.076;9.118;2022-07-18T15:10:34;3.33;;;3.13;;
8066;SDS011;4076;48.076;9.118;2022-07-18T15:13:00;3.07;;;2.77;;
8066;SDS011;4076;48.076;9.118;2022-07-18T15:15:26;3.47;;;3.33;;
8066;SDS011;4076;48.076;9.118;2022-07-18T15:17:51;3.67;;;3.27;;
8066;SDS011;4076;48.076;9.118;2022-07-18T15:20:17;4.10;;;3.90;;
8066;SDS011;4076;48.076;9.118;2022-07-18T15:22:42;4.20;;;3.63;;
8066;SDS011;4076;48.076;9.118;2022-07-18T15:25:09;2.60;;;2.50;;
8066;SDS011;4076;48.076;9.118;2022-07-18T15:27:35;2.50;;;2.40;;
8066;SDS011;4076;48.076;9.118;2022-07-18T15:30:00;2.40;;;2.30;;
8066;SDS011;4076;48.076;9.118;2022-07-18T15:32:26;3.50;;;3.20;;
8066;SDS011;4076;48.076;9.118;2022-07-18T15:34:51;2.83;;;2.73;;
8066;SDS011;4076;48.076;9.118;2022-07-18T15:37:17;2.97;;;2.70;;
8066;SDS011;4076;48.076;9.118;2022-07-18T15:39:42;3.10;;;2.90;;
8066;SDS011;4076;48.076;9.118;2022-07-18T15:42:08;2.90;;;2.80;;
8066;SDS011;4076;48.076;9.118;2022-07-18T15:44:34;3.40;;;3.10;;
8066;SDS011;4076;48.076;9.118;2022-07-18T15:47:03;2.90;;;2.80;;
8066;SDS011;4076;48.076;9.118;2022-07-18T15:49:31;2.70;;;2.60;;
8066;SDS011;4076;48.076;9.118;2022-07-18T15:51:58;3.07;;;2.87;;
8066;SDS011;4076;48.076;9.118;2022-07-18T15:54:23;3.00;;;2.80;;
8066;SDS011;4076;48.076;9.118;2022-07-18T15:56:49;3.17;;;2.97;;
8066;SDS011;4076;48.076;9.118;2022-07-18T15:59:15;3.53;;;3.00;;
8066;SDS011;4076;48.076;9.118;2022-07-18T16:01:40;2.97;;;2.87;;
8066;SDS011;4076;48.076;9.118;2022-07-18T16:04:07;5.80;;;2.87;;
8066;SDS011;4076;48.076;9.118;2022-07-18T16:06:33;2.80;;;2.60;;
8066;SDS011;4076;48.076;9.118;2022-07-18T16:08:59;3.47;;;3.10;;
8066;SDS011;4076;48.076;9.118;2022-07-18T16:11:24;2.53;;;2.40;;
8066;SDS011;4076;48.076;9.118;2022-07-18T16:13:50;3.20;;;3.00;;